Orbital elements of CZ-2D R/B
| Launched | 14 June 2010 |
| Flight ended | – |
| Launch site | Jiuquan Space Center, PRC |
| Owner | People's Republic of China |
| NORAD ID | 36597 |
| Date fetched |
Epoch osculation |
Inc. [°] |
Ecc. | RA asc node [hr] |
Arg Peri. [°] |
Mean anom [°] |
Mean motion [rev/day] |
Abs. mag |
| Date fetched |
Epoch osculation |
Inc. [°] |
Ecc. | RA asc node [hr] |
Arg Peri. [°] |
Mean anom [°] |
Mean motion [rev/day] |
Abs. mag |
| 2026 May 05 17:57 | 2026 May 05 12:50:03 | 97.9826 | 0.00517 | 10.2316 | 64.9322 | 295.7255 | 15.02621 | 5.243 |
| 2026 May 04 17:57 | 2026 Apr 30 14:33:59 | 97.9833 | 0.00516 | 9.8933 | 80.8171 | 295.7255 | 15.02621 | 5.243 |
| 2026 May 03 17:57 | 2026 Apr 30 14:33:59 | 97.9833 | 0.00516 | 9.8933 | 80.8171 | 295.7255 | 15.02621 | 5.243 |
| 2026 May 02 17:57 | 2026 Apr 30 14:33:59 | 97.9833 | 0.00516 | 9.8933 | 80.8171 | 295.7255 | 15.02621 | 5.243 |
| 2026 May 01 17:56 | 2026 Apr 30 14:33:59 | 97.9833 | 0.00516 | 9.8933 | 80.8171 | 295.7255 | 15.02621 | 5.243 |
| 2026 Apr 30 17:56 | 2026 Apr 30 14:33:59 | 97.9833 | 0.00516 | 9.8933 | 80.8171 | 295.7255 | 15.02621 | 5.243 |
| 2026 Apr 29 17:57 | 2026 Apr 24 08:19:51 | 97.9846 | 0.00510 | 9.4634 | 101.1623 | 295.7255 | 15.02621 | 5.243 |
| 2026 Apr 28 17:56 | 2026 Apr 24 08:19:51 | 97.9846 | 0.00510 | 9.4634 | 101.1623 | 295.7255 | 15.02621 | 5.243 |
| 2026 Apr 27 17:58 | 2026 Apr 24 08:19:51 | 97.9846 | 0.00510 | 9.4634 | 101.1623 | 295.7255 | 15.02621 | 5.243 |
| 2026 Apr 26 17:58 | 2026 Apr 24 08:19:51 | 97.9846 | 0.00510 | 9.4634 | 101.1623 | 295.7255 | 15.02621 | 5.243 |
| 2026 Apr 25 17:58 | 2026 Apr 24 08:19:51 | 97.9846 | 0.00510 | 9.4634 | 101.1623 | 295.7255 | 15.02621 | 5.243 |
| 2026 Apr 24 17:59 | 2026 Apr 24 08:19:51 | 97.9846 | 0.00510 | 9.4634 | 101.1623 | 295.7255 | 15.02621 | 5.243 |
| 2026 Apr 23 17:57 | 2026 Apr 19 11:39:22 | 97.9846 | 0.00506 | 9.1296 | 117.1628 | 295.7255 | 15.02621 | 5.243 |
| 2026 Apr 22 17:57 | 2026 Apr 19 11:39:22 | 97.9846 | 0.00506 | 9.1296 | 117.1628 | 295.7255 | 15.02621 | 5.243 |
| 2026 Apr 21 17:57 | 2026 Apr 19 11:39:22 | 97.9846 | 0.00506 | 9.1296 | 117.1628 | 295.7255 | 15.02621 | 5.243 |
| 2026 Apr 20 17:57 | 2026 Apr 19 11:39:22 | 97.9846 | 0.00506 | 9.1296 | 117.1628 | 295.7255 | 15.02621 | 5.243 |
| 2026 Apr 19 17:58 | 2026 Apr 19 11:39:22 | 97.9846 | 0.00506 | 9.1296 | 117.1628 | 295.7255 | 15.02621 | 5.243 |
| 2026 Apr 18 17:56 | 2026 Apr 13 00:37:09 | 97.9835 | 0.00501 | 8.6860 | 138.5665 | 295.7255 | 15.02621 | 5.243 |
| 2026 Apr 16 17:57 | 2026 Apr 13 00:37:09 | 97.9835 | 0.00501 | 8.6860 | 138.5665 | 295.7255 | 15.02621 | 5.243 |
| 2026 Apr 14 17:57 | 2026 Apr 13 00:37:09 | 97.9835 | 0.00501 | 8.6860 | 138.5665 | 295.7255 | 15.02621 | 5.243 |
| 2026 Apr 13 17:57 | 2026 Apr 13 00:37:09 | 97.9835 | 0.00501 | 8.6860 | 138.5665 | 295.7255 | 15.02621 | 5.243 |
| 2026 Apr 12 17:57 | 2026 Apr 08 13:31:49 | 97.9826 | 0.00499 | 8.3797 | 153.2930 | 295.7255 | 15.02621 | 5.243 |
| 2026 Apr 11 17:57 | 2026 Apr 08 13:31:49 | 97.9826 | 0.00499 | 8.3797 | 153.2930 | 295.7255 | 15.02621 | 5.243 |
| 2026 Apr 10 17:58 | 2026 Apr 08 13:31:49 | 97.9826 | 0.00499 | 8.3797 | 153.2930 | 295.7255 | 15.02621 | 5.243 |
| 2026 Apr 09 18:01 | 2026 Apr 08 13:31:49 | 97.9826 | 0.00499 | 8.3797 | 153.2930 | 295.7255 | 15.02621 | 5.243 |
| 2026 Apr 08 17:57 | 2026 Apr 08 13:31:49 | 97.9826 | 0.00499 | 8.3797 | 153.2930 | 295.7255 | 15.02621 | 5.243 |